Time;durP1;ratioP1;P1;durP2;ratioP2;P2;SDS_P1;SDS_P2;PMS_P1;PMS_P2;Temp;Humidity;BMP_temperature;BMP_pressure;BME280_temperature;BME280_humidity;BME280_pressure;Samples;Min_cycle;Max_cycle;Signal;HPM_P1;HPM_P2
2024/03/19 00:02:20;;;;;;;87.53;63.92;;;;;;;;;;5143826;27;20043;-49
2024/03/19 00:04:46;;;;;;;84.45;61.95;;;;;;;;;;5134540;27;20015;-51
2024/03/19 00:07:12;;;;;;;90.15;61.65;;;;;;;;;;5145268;27;20035;-50
2024/03/19 00:19:08;;;;;;;88.00;58.30;;;;;;;;;;5148863;27;20552;-51
2024/03/19 00:21:34;;;;;;;88.65;58.70;;;;;;;;;;5152585;27;20030;-52
2024/03/19 00:24:02;;;;;;;89.93;59.50;;;;;;;;;;5142023;27;20555;-49
2024/03/19 00:26:28;;;;;;;92.10;58.63;;;;;;;;;;5133724;27;20031;-49
2024/03/19 00:28:54;;;;;;;86.07;56.95;;;;;;;;;;5147094;27;20039;-55
2024/03/19 00:31:20;;;;;;;84.70;56.95;;;;;;;;;;5153103;27;20352;-53
2024/03/19 00:33:48;;;;;;;86.63;58.55;;;;;;;;;;5150899;27;20031;-52
2024/03/19 00:36:17;;;;;;;94.07;61.55;;;;;;;;;;5130683;27;20101;-53
2024/03/19 00:38:43;;;;;;;89.75;59.72;;;;;;;;;;5152535;27;20363;-53
2024/03/19 00:41:09;;;;;;;93.10;60.63;;;;;;;;;;5151522;27;20034;-52
2024/03/19 00:43:35;;;;;;;95.50;61.10;;;;;;;;;;5149961;27;20027;-51
2024/03/19 00:46:01;;;;;;;95.75;62.38;;;;;;;;;;5155194;27;20034;-54
2024/03/19 00:48:27;;;;;;;98.72;62.17;;;;;;;;;;5142763;27;20464;-54
2024/03/19 00:50:53;;;;;;;86.85;57.45;;;;;;;;;;5152214;27;20019;-49
2024/03/19 00:53:19;;;;;;;93.63;59.53;;;;;;;;;;5142816;27;20031;-50
2024/03/19 00:55:45;;;;;;;91.82;57.67;;;;;;;;;;5138181;27;20062;-51
2024/03/19 00:58:12;;;;;;;97.30;62.15;;;;;;;;;;5138180;27;20100;-50
2024/03/19 01:00:40;;;;;;;94.15;59.13;;;;;;;;;;5138115;27;20036;-53
2024/03/19 01:03:08;;;;;;;89.63;58.08;;;;;;;;;;5156726;27;20106;-52
2024/03/19 01:05:35;;;;;;;94.75;59.80;;;;;;;;;;5142207;27;20135;-49
2024/03/19 01:08:01;;;;;;;95.55;63.75;;;;;;;;;;5156791;27;20015;-50
2024/03/19 01:10:28;;;;;;;95.35;60.17;;;;;;;;;;5152812;27;20030;-48
2024/03/19 01:12:54;;;;;;;93.10;60.35;;;;;;;;;;5149449;27;20482;-49
2024/03/19 01:15:20;;;;;;;93.53;59.15;;;;;;;;;;5149469;27;20110;-49
2024/03/19 01:17:46;;;;;;;93.80;60.08;;;;;;;;;;5151763;27;20115;-50
2024/03/19 01:20:12;;;;;;;94.25;60.05;;;;;;;;;;5146505;27;20105;-49
2024/03/19 01:22:39;;;;;;;94.15;60.33;;;;;;;;;;5156321;27;20015;-49
2024/03/19 01:25:09;;;;;;;99.00;60.72;;;;;;;;;;5156417;27;20018;-52
2024/03/19 01:27:49;;;;;;;99.50;63.95;;;;;;;;;;5156690;27;20106;-49
2024/03/19 01:30:16;;;;;;;102.90;63.40;;;;;;;;;;5155828;27;20410;-52
2024/03/19 01:32:42;;;;;;;98.97;59.95;;;;;;;;;;5137458;27;20023;-52
2024/03/19 01:35:08;;;;;;;98.13;61.22;;;;;;;;;;5155964;27;20417;-50
2024/03/19 01:37:34;;;;;;;99.63;62.50;;;;;;;;;;5156185;27;20495;-52
2024/03/19 01:40:01;;;;;;;94.68;59.40;;;;;;;;;;5137431;27;20111;-51
2024/03/19 01:42:27;;;;;;;95.20;59.53;;;;;;;;;;5141530;27;20019;-54
2024/03/19 01:45:13;;;;;;;90.78;58.83;;;;;;;;;;5135402;27;20023;-53
2024/03/19 01:47:40;;;;;;;89.57;56.78;;;;;;;;;;5140431;27;20027;-54
2024/03/19 01:50:09;;;;;;;92.05;57.25;;;;;;;;;;5148603;27;20051;-52
2024/03/19 01:52:45;;;;;;;86.88;54.72;;;;;;;;;;5153252;27;20058;-54
2024/03/19 01:55:12;;;;;;;87.78;57.10;;;;;;;;;;5156083;27;20328;-56
2024/03/19 01:57:38;;;;;;;89.25;55.28;;;;;;;;;;5155558;27;20379;-50
2024/03/19 02:00:04;;;;;;;83.78;54.72;;;;;;;;;;5137078;27;20060;-53
2024/03/19 02:02:34;;;;;;;91.70;57.78;;;;;;;;;;5149616;27;20106;-50
2024/03/19 02:05:01;;;;;;;91.00;55.28;;;;;;;;;;5155912;27;20022;-51
2024/03/19 02:07:27;;;;;;;83.15;54.85;;;;;;;;;;5153735;27;20023;-53
2024/03/19 02:09:57;;;;;;;91.43;56.80;;;;;;;;;;5155763;27;20019;-50
2024/03/19 02:12:24;;;;;;;86.63;55.70;;;;;;;;;;5133738;27;20057;-52
2024/03/19 02:14:52;;;;;;;73.22;48.85;;;;;;;;;;5152920;27;20098;-50
2024/03/19 02:17:18;;;;;;;85.13;54.03;;;;;;;;;;5150961;27;20030;-52
2024/03/19 02:19:45;;;;;;;77.28;51.58;;;;;;;;;;5147725;27;20031;-49
2024/03/19 02:22:11;;;;;;;83.07;49.78;;;;;;;;;;5151513;27;20077;-51
2024/03/19 02:24:43;;;;;;;77.45;51.22;;;;;;;;;;5122950;27;20062;-49
2024/03/19 02:27:10;;;;;;;83.35;52.55;;;;;;;;;;5154203;27;20027;-55
2024/03/19 02:29:36;;;;;;;78.95;50.15;;;;;;;;;;5151062;27;20087;-52
2024/03/19 02:32:02;;;;;;;81.60;51.60;;;;;;;;;;5141404;27;20050;-53
2024/03/19 02:34:28;;;;;;;81.45;52.42;;;;;;;;;;5130749;27;20042;-52
2024/03/19 02:36:56;;;;;;;84.60;52.00;;;;;;;;;;5143744;27;20023;-52
2024/03/19 02:39:23;;;;;;;81.97;54.70;;;;;;;;;;5153693;27;20029;-50
2024/03/19 02:41:49;;;;;;;81.88;51.63;;;;;;;;;;5153668;27;20025;-51
2024/03/19 02:44:15;;;;;;;81.70;52.40;;;;;;;;;;5153987;27;20019;-54
2024/03/19 02:46:41;;;;;;;88.22;54.60;;;;;;;;;;5141887;27;20034;-51
2024/03/19 02:49:07;;;;;;;81.25;52.80;;;;;;;;;;5142213;27;20030;-53
2024/03/19 02:51:36;;;;;;;78.03;50.25;;;;;;;;;;5139503;27;20024;-49
2024/03/19 02:54:02;;;;;;;75.03;50.33;;;;;;;;;;5135374;27;20038;-49
2024/03/19 02:56:28;;;;;;;77.13;51.83;;;;;;;;;;5153890;27;20031;-49
2024/03/19 02:58:56;;;;;;;80.50;52.67;;;;;;;;;;5153836;27;20360;-54
2024/03/19 03:01:21;;;;;;;78.13;50.95;;;;;;;;;;5153436;27;20034;-52
2024/03/19 03:03:48;;;;;;;76.30;50.38;;;;;;;;;;5153637;27;20022;-49
2024/03/19 03:06:14;;;;;;;72.40;46.90;;;;;;;;;;5132649;27;20057;-51
2024/03/19 03:08:40;;;;;;;74.65;48.92;;;;;;;;;;5142111;27;20391;-53
2024/03/19 03:11:07;;;;;;;76.70;51.28;;;;;;;;;;5153820;27;20105;-52
2024/03/19 03:13:33;;;;;;;77.90;49.45;;;;;;;;;;5142788;27;20033;-52
2024/03/19 03:15:59;;;;;;;75.07;48.30;;;;;;;;;;5149569;27;20023;-51
2024/03/19 03:18:25;;;;;;;77.28;49.42;;;;;;;;;;5132667;27;20380;-52
2024/03/19 03:20:51;;;;;;;75.70;50.80;;;;;;;;;;5151628;27;20105;-52
2024/03/19 03:23:18;;;;;;;83.38;53.05;;;;;;;;;;5152545;27;20111;-50
2024/03/19 03:25:44;;;;;;;73.75;50.33;;;;;;;;;;5150744;27;20070;-49
2024/03/19 03:28:10;;;;;;;77.95;49.83;;;;;;;;;;5141536;27;20027;-50
2024/03/19 03:30:37;;;;;;;80.78;52.72;;;;;;;;;;5153656;27;20034;-52
2024/03/19 03:33:03;;;;;;;82.20;52.65;;;;;;;;;;5134485;27;20074;-50
2024/03/19 03:35:29;;;;;;;86.55;57.03;;;;;;;;;;5125627;27;20089;-52
2024/03/19 03:37:55;;;;;;;81.28;53.10;;;;;;;;;;5148821;27;20023;-50
2024/03/19 03:40:23;;;;;;;84.63;54.50;;;;;;;;;;5133182;27;20015;-49
2024/03/19 03:42:49;;;;;;;82.78;54.97;;;;;;;;;;5151754;27;20025;-55
2024/03/19 03:45:18;;;;;;;85.07;55.20;;;;;;;;;;5151265;27;20098;-52
2024/03/19 03:47:44;;;;;;;84.03;53.63;;;;;;;;;;5153898;27;20495;-50
2024/03/19 03:50:11;;;;;;;80.70;51.42;;;;;;;;;;5153197;27;20089;-54
2024/03/19 03:52:37;;;;;;;80.30;53.47;;;;;;;;;;5153707;27;20018;-50
2024/03/19 03:55:04;;;;;;;76.70;52.50;;;;;;;;;;5135327;27;20035;-52
2024/03/19 03:57:31;;;;;;;79.40;51.50;;;;;;;;;;5153765;27;20150;-49
2024/03/19 03:59:58;;;;;;;75.93;52.15;;;;;;;;;;5135078;27;20030;-52
2024/03/19 04:02:24;;;;;;;77.30;48.92;;;;;;;;;;5145857;27;20015;-53
2024/03/19 04:04:53;;;;;;;74.43;49.50;;;;;;;;;;5154085;27;20030;-52
2024/03/19 04:07:19;;;;;;;75.03;49.72;;;;;;;;;;5139063;27;20076;-55
2024/03/19 04:09:45;;;;;;;73.25;50.63;;;;;;;;;;5150669;27;20027;-53
2024/03/19 04:12:11;;;;;;;77.18;52.60;;;;;;;;;;5147965;27;20031;-53
2024/03/19 04:14:37;;;;;;;80.20;49.53;;;;;;;;;;5141895;27;20038;-55
2024/03/19 04:17:03;;;;;;;74.13;49.22;;;;;;;;;;5149315;27;20031;-55
2024/03/19 04:19:29;;;;;;;73.65;48.50;;;;;;;;;;5144570;27;20071;-52
2024/03/19 04:21:55;;;;;;;77.97;50.13;;;;;;;;;;5157921;27;20444;-54
2024/03/19 04:24:21;;;;;;;74.07;48.05;;;;;;;;;;5157573;27;20079;-55
2024/03/19 04:26:47;;;;;;;73.72;48.05;;;;;;;;;;5157675;27;20022;-54
2024/03/19 04:29:18;;;;;;;74.93;48.15;;;;;;;;;;5157455;27;20031;-54
2024/03/19 04:31:44;;;;;;;73.03;48.25;;;;;;;;;;5154887;27;20023;-53
2024/03/19 04:34:11;;;;;;;80.18;49.17;;;;;;;;;;5139068;27;20554;-54
2024/03/19 04:36:37;;;;;;;72.55;48.03;;;;;;;;;;5138516;27;20018;-50
2024/03/19 04:39:03;;;;;;;76.80;48.83;;;;;;;;;;5156569;27;20023;-50
2024/03/19 04:41:29;;;;;;;80.00;50.90;;;;;;;;;;5156620;27;20093;-50
2024/03/19 04:43:55;;;;;;;81.35;49.17;;;;;;;;;;5153233;27;20023;-50
2024/03/19 04:46:21;;;;;;;78.32;50.05;;;;;;;;;;5155755;27;20041;-52
2024/03/19 04:48:47;;;;;;;80.45;49.83;;;;;;;;;;5149523;27;20019;-52
2024/03/19 04:51:14;;;;;;;82.57;52.58;;;;;;;;;;5149515;27;20060;-54
2024/03/19 04:53:40;;;;;;;80.40;49.28;;;;;;;;;;5151428;27;20113;-51
2024/03/19 04:56:06;;;;;;;74.75;48.65;;;;;;;;;;5155372;27;20065;-51
2024/03/19 04:58:32;;;;;;;79.90;49.22;;;;;;;;;;5155124;27;20010;-53
2024/03/19 05:00:58;;;;;;;82.68;49.78;;;;;;;;;;5154128;27;20031;-52
2024/03/19 05:03:24;;;;;;;82.70;52.38;;;;;;;;;;5155440;27;20033;-51
2024/03/19 05:05:50;;;;;;;83.88;50.28;;;;;;;;;;5155278;27;20103;-53
2024/03/19 05:08:16;;;;;;;78.70;48.67;;;;;;;;;;5156486;27;20029;-53
2024/03/19 05:10:44;;;;;;;84.88;51.30;;;;;;;;;;5154940;27;20023;-49
2024/03/19 05:13:10;;;;;;;84.28;50.67;;;;;;;;;;5124895;27;20417;-55
2024/03/19 05:15:36;;;;;;;82.30;50.22;;;;;;;;;;5151810;27;20118;-53
2024/03/19 05:18:02;;;;;;;85.65;49.90;;;;;;;;;;5156393;27;20075;-52
2024/03/19 05:20:28;;;;;;;82.70;48.72;;;;;;;;;;5156157;27;20049;-49
2024/03/19 05:22:54;;;;;;;84.70;49.53;;;;;;;;;;5140235;27;20035;-48
2024/03/19 05:25:21;;;;;;;84.93;51.65;;;;;;;;;;5153836;27;20475;-49
2024/03/19 05:27:47;;;;;;;81.53;50.63;;;;;;;;;;5146041;27;20027;-50
2024/03/19 05:30:14;;;;;;;81.70;49.53;;;;;;;;;;5155909;27;20071;-52
2024/03/19 05:32:40;;;;;;;77.90;47.28;;;;;;;;;;5130994;27;20031;-50
2024/03/19 05:35:07;;;;;;;81.22;49.05;;;;;;;;;;5156197;27;20121;-53
2024/03/19 05:37:33;;;;;;;82.35;48.75;;;;;;;;;;5141788;27;20034;-52
2024/03/19 05:39:59;;;;;;;82.10;50.55;;;;;;;;;;5148745;27;20029;-49
2024/03/19 05:42:25;;;;;;;82.03;48.38;;;;;;;;;;5155241;27;20023;-50
2024/03/19 05:44:53;;;;;;;82.80;47.10;;;;;;;;;;5137352;27;20022;-49
2024/03/19 05:47:19;;;;;;;72.53;46.22;;;;;;;;;;5125450;27;20023;-52
2024/03/19 05:49:45;;;;;;;74.97;45.53;;;;;;;;;;5148651;27;20020;-49
2024/03/19 05:52:11;;;;;;;69.40;42.75;;;;;;;;;;5143104;27;20050;-50
2024/03/19 05:54:37;;;;;;;70.97;44.47;;;;;;;;;;5155723;27;20510;-49
2024/03/19 05:57:03;;;;;;;83.30;46.50;;;;;;;;;;5155173;27;20053;-50
2024/03/19 05:59:30;;;;;;;81.45;46.40;;;;;;;;;;5153612;27;20505;-49
2024/03/19 06:01:56;;;;;;;82.60;48.45;;;;;;;;;;5155794;27;20025;-49
2024/03/19 06:04:22;;;;;;;80.07;47.55;;;;;;;;;;5154901;27;20038;-52
2024/03/19 06:06:48;;;;;;;83.50;47.78;;;;;;;;;;5155808;27;20030;-49
2024/03/19 06:09:15;;;;;;;81.43;48.70;;;;;;;;;;5138767;27;20035;-49
2024/03/19 06:11:41;;;;;;;83.93;49.17;;;;;;;;;;5154387;27;20019;-49
2024/03/19 06:14:07;;;;;;;81.22;46.33;;;;;;;;;;5144162;27;20045;-50
2024/03/19 06:16:34;;;;;;;77.13;44.72;;;;;;;;;;5154015;27;20018;-52
2024/03/19 06:19:00;;;;;;;75.95;45.83;;;;;;;;;;5155285;27;20058;-49
2024/03/19 06:21:26;;;;;;;79.55;48.00;;;;;;;;;;5154292;27;20026;-49
2024/03/19 06:23:52;;;;;;;76.82;44.45;;;;;;;;;;5155315;27;20033;-51
2024/03/19 06:26:18;;;;;;;81.03;47.60;;;;;;;;;;5135906;27;20475;-53
2024/03/19 06:28:44;;;;;;;78.00;48.17;;;;;;;;;;5140909;27;20023;-50
2024/03/19 06:31:10;;;;;;;78.60;49.35;;;;;;;;;;5151993;27;20027;-54
2024/03/19 06:33:36;;;;;;;75.75;44.05;;;;;;;;;;5139601;27;20073;-50
2024/03/19 06:36:03;;;;;;;83.35;49.63;;;;;;;;;;5146140;27;20411;-53
2024/03/19 06:38:29;;;;;;;79.38;46.65;;;;;;;;;;5131669;27;20023;-49
2024/03/19 06:40:55;;;;;;;86.47;48.50;;;;;;;;;;5154964;27;20073;-51
2024/03/19 06:43:21;;;;;;;82.85;47.47;;;;;;;;;;5148717;27;20026;-49
2024/03/19 06:45:47;;;;;;;93.40;51.15;;;;;;;;;;5152684;27;20030;-54
2024/03/19 06:48:13;;;;;;;85.53;49.33;;;;;;;;;;5154837;27;20051;-51
2024/03/19 06:50:39;;;;;;;95.05;53.38;;;;;;;;;;5136022;27;20332;-50
2024/03/19 06:53:05;;;;;;;89.57;50.92;;;;;;;;;;5149966;27;20030;-48
2024/03/19 06:55:32;;;;;;;92.38;50.45;;;;;;;;;;5152731;27;20109;-53
2024/03/19 06:57:58;;;;;;;79.07;49.30;;;;;;;;;;5122312;27;20030;-50
2024/03/19 07:00:26;;;;;;;86.63;49.33;;;;;;;;;;5152530;27;20034;-51
2024/03/19 07:02:52;;;;;;;76.88;45.70;;;;;;;;;;5147607;27;20134;-49
2024/03/19 07:05:18;;;;;;;73.15;44.65;;;;;;;;;;5133722;27;20499;-49
2024/03/19 07:07:45;;;;;;;76.47;43.83;;;;;;;;;;5150499;27;20045;-53
2024/03/19 07:10:11;;;;;;;75.60;46.42;;;;;;;;;;5154301;27;20490;-49
2024/03/19 07:12:39;;;;;;;79.70;47.10;;;;;;;;;;5131641;27;20495;-52
2024/03/19 07:15:10;;;;;;;77.90;46.58;;;;;;;;;;5133596;27;20034;-52
2024/03/19 07:17:37;;;;;;;76.88;44.42;;;;;;;;;;5145741;27;20043;-49
2024/03/19 07:20:09;;;;;;;81.82;47.45;;;;;;;;;;5153192;27;20079;-52
2024/03/19 07:22:40;;;;;;;72.97;44.53;;;;;;;;;;5148228;27;20053;-49
2024/03/19 07:25:07;;;;;;;71.85;42.30;;;;;;;;;;5148148;27;20160;-51
2024/03/19 07:27:36;;;;;;;76.05;43.83;;;;;;;;;;5142336;27;20018;-52
2024/03/19 07:30:02;;;;;;;63.42;40.53;;;;;;;;;;5131855;27;20457;-55
2024/03/19 07:32:28;;;;;;;68.30;40.55;;;;;;;;;;5153932;27;20082;-54
2024/03/19 07:34:54;;;;;;;62.08;39.55;;;;;;;;;;5154226;27;20042;-51
2024/03/19 07:37:20;;;;;;;70.70;40.75;;;;;;;;;;5154287;27;20044;-51
2024/03/19 07:39:47;;;;;;;70.95;41.83;;;;;;;;;;5154310;27;20416;-53
2024/03/19 07:42:13;;;;;;;68.00;41.40;;;;;;;;;;5153834;27;20103;-55
2024/03/19 07:44:39;;;;;;;70.80;42.72;;;;;;;;;;5131885;27;20076;-53
2024/03/19 07:50:10;;;;;;;64.07;39.33;;;;;;;;;;5152822;27;20029;-54
2024/03/19 07:52:36;;;;;;;66.57;40.08;;;;;;;;;;5153751;27;20034;-55
2024/03/19 07:55:04;;;;;;;66.72;39.50;;;;;;;;;;5153411;27;20396;-52
2024/03/19 07:57:30;;;;;;;69.78;41.90;;;;;;;;;;5135021;27;20388;-54
2024/03/19 07:59:58;;;;;;;67.15;40.20;;;;;;;;;;5134700;27;20086;-54
2024/03/19 08:02:24;;;;;;;64.40;39.90;;;;;;;;;;5135687;27;20025;-53
2024/03/19 08:05:12;;;;;;;70.38;41.88;;;;;;;;;;5153513;27;20015;-54
2024/03/19 08:07:40;;;;;;;66.28;40.17;;;;;;;;;;5153476;27;20033;-53
2024/03/19 08:10:06;;;;;;;71.47;42.65;;;;;;;;;;5133722;27;20403;-54
2024/03/19 08:12:33;;;;;;;67.50;41.90;;;;;;;;;;5144697;27;20033;-51
2024/03/19 08:15:02;;;;;;;70.22;42.47;;;;;;;;;;5141089;27;20449;-51
2024/03/19 08:17:28;;;;;;;67.88;41.28;;;;;;;;;;5149183;27;20083;-49
2024/03/19 08:19:55;;;;;;;58.92;40.78;;;;;;;;;;5134684;27;20034;-50
2024/03/19 08:22:21;;;;;;;67.57;43.72;;;;;;;;;;5148357;27;20018;-60
2024/03/19 08:24:48;;;;;;;72.82;42.35;;;;;;;;;;5127927;27;20023;-69
2024/03/19 08:27:15;;;;;;;62.00;39.58;;;;;;;;;;5153711;27;20014;-68
2024/03/19 08:29:41;;;;;;;61.92;38.42;;;;;;;;;;5148066;27;20070;-46
2024/03/19 08:32:09;;;;;;;62.33;39.47;;;;;;;;;;5151206;27;20095;-53
2024/03/19 08:34:36;;;;;;;62.42;39.17;;;;;;;;;;5149772;27;20042;-54
2024/03/19 08:37:03;;;;;;;62.05;39.60;;;;;;;;;;5147642;27;20019;-56
2024/03/19 08:39:29;;;;;;;64.40;40.47;;;;;;;;;;5147760;27;20035;-58
2024/03/19 08:41:55;;;;;;;70.20;42.22;;;;;;;;;;5152206;27;20026;-52
2024/03/19 08:44:21;;;;;;;65.00;41.70;;;;;;;;;;5148731;27;20026;-57
2024/03/19 08:46:47;;;;;;;71.68;42.47;;;;;;;;;;5143704;27;20018;-49
2024/03/19 08:49:16;;;;;;;66.53;43.10;;;;;;;;;;5137047;27;20031;-52
2024/03/19 08:51:42;;;;;;;70.60;43.88;;;;;;;;;;5148083;27;20015;-56
2024/03/19 08:54:08;;;;;;;66.78;42.38;;;;;;;;;;5145885;27;20053;-55
2024/03/19 08:56:35;;;;;;;70.47;43.95;;;;;;;;;;5129079;28;20023;-60
2024/03/19 08:59:01;;;;;;;68.57;43.10;;;;;;;;;;5122538;27;20023;-60
2024/03/19 09:01:28;;;;;;;69.15;44.08;;;;;;;;;;5126643;27;20433;-47
2024/03/19 09:03:54;;;;;;;73.63;46.30;;;;;;;;;;5149666;27;20114;-46
2024/03/19 09:06:31;;;;;;;75.18;45.83;;;;;;;;;;5128562;27;20034;-44
2024/03/19 09:08:57;;;;;;;71.25;46.28;;;;;;;;;;5148200;27;20019;-52
2024/03/19 09:11:23;;;;;;;72.32;45.92;;;;;;;;;;5129210;27;20046;-60
2024/03/19 09:13:50;;;;;;;69.68;45.28;;;;;;;;;;5150925;27;20113;-55
2024/03/19 09:16:19;;;;;;;73.63;46.38;;;;;;;;;;5145839;27;20030;-54
2024/03/19 09:18:45;;;;;;;77.00;46.65;;;;;;;;;;5141809;27;21561;-54
2024/03/19 09:21:11;;;;;;;74.07;48.67;;;;;;;;;;5150839;27;20030;-56
2024/03/19 09:23:38;;;;;;;71.05;47.13;;;;;;;;;;5131382;27;20019;-52
2024/03/19 09:26:04;;;;;;;75.38;48.40;;;;;;;;;;5143435;27;20547;-51
2024/03/19 09:28:31;;;;;;;77.88;47.38;;;;;;;;;;5149735;27;20107;-53
2024/03/19 09:30:58;;;;;;;72.90;46.65;;;;;;;;;;5155776;27;20468;-46
2024/03/19 09:33:24;;;;;;;73.60;46.92;;;;;;;;;;5152583;27;20043;-60
2024/03/19 09:35:50;;;;;;;72.40;46.13;;;;;;;;;;5144707;27;20087;-53
2024/03/19 09:38:18;;;;;;;69.55;43.55;;;;;;;;;;5148971;27;20019;-51
2024/03/19 09:40:47;;;;;;;73.80;46.17;;;;;;;;;;5149975;27;20080;-51
2024/03/19 09:43:21;;;;;;;73.43;46.47;;;;;;;;;;5151412;27;20019;-51
2024/03/19 09:45:47;;;;;;;70.28;46.05;;;;;;;;;;5143678;27;20094;-51
2024/03/19 09:48:15;;;;;;;70.30;44.75;;;;;;;;;;5147318;27;20027;-51
2024/03/19 09:50:43;;;;;;;70.85;46.33;;;;;;;;;;5140593;27;20027;-62
2024/03/19 09:53:15;;;;;;;74.00;45.33;;;;;;;;;;5132188;27;20050;-59
2024/03/19 09:55:41;;;;;;;67.68;44.58;;;;;;;;;;5127106;27;20034;-55
2024/03/19 09:58:07;;;;;;;63.75;42.65;;;;;;;;;;5156222;27;20105;-61
2024/03/19 10:00:33;;;;;;;64.30;40.90;;;;;;;;;;5151151;27;20053;-61
2024/03/19 10:03:00;;;;;;;65.63;41.40;;;;;;;;;;5144423;27;20495;-62
2024/03/19 10:05:26;;;;;;;71.93;43.33;;;;;;;;;;5142855;27;20173;-46
2024/03/19 10:07:53;;;;;;;68.78;43.17;;;;;;;;;;5145621;27;20067;-45
2024/03/19 10:10:19;;;;;;;67.85;44.17;;;;;;;;;;5151793;27;20388;-58
2024/03/19 10:12:45;;;;;;;69.72;42.45;;;;;;;;;;5155775;27;20486;-46
2024/03/19 10:15:19;;;;;;;66.30;42.33;;;;;;;;;;5133674;27;20062;-45
2024/03/19 10:17:46;;;;;;;64.68;41.47;;;;;;;;;;5155231;27;20154;-51
2024/03/19 10:20:12;;;;;;;67.03;41.78;;;;;;;;;;5155548;27;20019;-45
2024/03/19 10:22:38;;;;;;;61.30;42.38;;;;;;;;;;5140818;27;20014;-46
2024/03/19 10:25:08;;;;;;;59.67;40.03;;;;;;;;;;5136524;27;20042;-47
2024/03/19 10:27:34;;;;;;;59.75;39.63;;;;;;;;;;5155371;27;20050;-52
2024/03/19 10:30:01;;;;;;;61.47;40.05;;;;;;;;;;5153451;27;20087;-50
2024/03/19 10:32:27;;;;;;;61.65;39.70;;;;;;;;;;5154916;27;20026;-46
2024/03/19 10:34:58;;;;;;;59.30;39.80;;;;;;;;;;5155112;27;20122;-45
2024/03/19 10:37:24;;;;;;;54.33;39.05;;;;;;;;;;5154288;27;20064;-45
2024/03/19 10:39:50;;;;;;;57.63;37.25;;;;;;;;;;5140710;27;20037;-46
2024/03/19 10:42:16;;;;;;;59.40;38.78;;;;;;;;;;5154838;27;20061;-45
2024/03/19 10:44:45;;;;;;;52.63;37.08;;;;;;;;;;5136326;27;20015;-45
2024/03/19 10:47:14;;;;;;;58.00;39.47;;;;;;;;;;5136253;27;20026;-45
2024/03/19 10:49:40;;;;;;;56.20;38.90;;;;;;;;;;5154353;27;20022;-45
2024/03/19 10:52:13;;;;;;;57.08;37.65;;;;;;;;;;5154769;27;20029;-45
2024/03/19 10:54:41;;;;;;;58.75;38.28;;;;;;;;;;5154574;27;20039;-46
2024/03/19 10:57:10;;;;;;;59.83;38.55;;;;;;;;;;5154713;27;20011;-45
2024/03/19 10:59:37;;;;;;;59.70;38.95;;;;;;;;;;5153962;27;20349;-45
2024/03/19 11:02:06;;;;;;;61.08;41.42;;;;;;;;;;5141435;27;20018;-45
2024/03/19 11:04:33;;;;;;;55.65;38.72;;;;;;;;;;5154595;27;20022;-48
2024/03/19 11:06:59;;;;;;;56.45;37.80;;;;;;;;;;5154358;27;20023;-46
2024/03/19 11:09:26;;;;;;;56.70;39.08;;;;;;;;;;5154604;27;20506;-47
2024/03/19 11:12:01;;;;;;;54.83;38.80;;;;;;;;;;5154315;27;20064;-45
2024/03/19 11:14:29;;;;;;;56.22;38.58;;;;;;;;;;5154303;27;20037;-45
2024/03/19 11:16:55;;;;;;;53.92;37.22;;;;;;;;;;5154699;27;20015;-47
2024/03/19 11:19:34;;;;;;;55.15;37.05;;;;;;;;;;5154291;27;20051;-47
2024/03/19 11:22:01;;;;;;;54.90;36.50;;;;;;;;;;5153378;27;20030;-48
2024/03/19 11:24:41;;;;;;;49.20;36.15;;;;;;;;;;5154320;27;20018;-46
2024/03/19 11:27:06;;;;;;;51.33;35.65;;;;;;;;;;5154411;27;20022;-46
2024/03/19 11:29:37;;;;;;;45.00;33.45;;;;;;;;;;5134755;27;20417;-46
2024/03/19 11:32:04;;;;;;;48.75;34.67;;;;;;;;;;5135259;27;20581;-47
2024/03/19 11:34:30;;;;;;;48.17;33.65;;;;;;;;;;5135501;27;20111;-46
2024/03/19 11:36:58;;;;;;;45.05;33.15;;;;;;;;;;5153799;27;20093;-46
2024/03/19 11:39:24;;;;;;;47.10;32.72;;;;;;;;;;5139359;27;20019;-46
2024/03/19 11:41:50;;;;;;;46.67;32.45;;;;;;;;;;5154065;27;20506;-47
2024/03/19 11:44:17;;;;;;;44.88;33.88;;;;;;;;;;5153827;27;20193;-46
2024/03/19 11:46:44;;;;;;;47.40;34.60;;;;;;;;;;5154160;27;20201;-46
2024/03/19 11:49:29;;;;;;;42.63;30.67;;;;;;;;;;5135071;27;20122;-47
2024/03/19 11:52:02;;;;;;;43.80;31.45;;;;;;;;;;5140868;27;20034;-48
2024/03/19 11:54:31;;;;;;;41.20;31.00;;;;;;;;;;5152862;27;20031;-46
2024/03/19 11:57:07;;;;;;;44.03;32.95;;;;;;;;;;5140545;27;20022;-47
2024/03/19 11:59:33;;;;;;;45.28;33.25;;;;;;;;;;5153587;27;20019;-46
2024/03/19 12:02:00;;;;;;;43.42;32.10;;;;;;;;;;5153644;27;20334;-48
2024/03/19 12:04:26;;;;;;;41.75;30.48;;;;;;;;;;5153932;27;20067;-46
2024/03/19 12:06:53;;;;;;;38.03;29.92;;;;;;;;;;5153601;27;20414;-51
2024/03/19 12:09:21;;;;;;;41.78;30.50;;;;;;;;;;5154048;27;20062;-46
2024/03/19 12:11:48;;;;;;;42.53;30.48;;;;;;;;;;5153590;27;20015;-46
2024/03/19 12:14:15;;;;;;;42.70;29.50;;;;;;;;;;5134893;27;20025;-52
2024/03/19 12:16:41;;;;;;;38.17;29.05;;;;;;;;;;5153579;27;20101;-48
2024/03/19 12:19:14;;;;;;;41.22;29.80;;;;;;;;;;5153447;27;20042;-46
2024/03/19 12:21:47;;;;;;;38.63;29.15;;;;;;;;;;5153610;27;20056;-46
2024/03/19 12:24:14;;;;;;;40.78;29.08;;;;;;;;;;5153385;27;20026;-52
2024/03/19 12:26:43;;;;;;;34.85;28.65;;;;;;;;;;5153575;27;20476;-53
2024/03/19 12:29:31;;;;;;;39.42;29.30;;;;;;;;;;5134851;27;20030;-50
2024/03/19 12:32:15;;;;;;;38.47;28.95;;;;;;;;;;5134588;27;20463;-45
2024/03/19 12:37:14;;;;;;;40.53;28.98;;;;;;;;;;5153179;27;20041;-47
2024/03/19 12:39:40;;;;;;;39.15;28.98;;;;;;;;;;5138821;27;20019;-45
2024/03/19 12:42:09;;;;;;;43.42;31.40;;;;;;;;;;5138795;27;20062;-46
2024/03/19 12:44:35;;;;;;;36.97;27.40;;;;;;;;;;5157262;27;20098;-46
2024/03/19 12:47:02;;;;;;;35.13;27.42;;;;;;;;;;5157716;27;20026;-46
2024/03/19 12:49:28;;;;;;;37.70;27.75;;;;;;;;;;5157296;27;20770;-49
2024/03/19 12:54:58;;;;;;;36.47;26.65;;;;;;;;;;5155924;27;20411;-46
2024/03/19 12:57:24;;;;;;;36.45;27.75;;;;;;;;;;5157393;27;20027;-46
2024/03/19 12:59:50;;;;;;;32.55;25.50;;;;;;;;;;5157127;27;20027;-46
2024/03/19 13:02:16;;;;;;;34.65;28.17;;;;;;;;;;5157156;27;20026;-46
2024/03/19 13:04:42;;;;;;;31.50;26.13;;;;;;;;;;5156920;27;20460;-46
2024/03/19 13:07:09;;;;;;;34.17;27.23;;;;;;;;;;5157088;27;20463;-48
2024/03/19 13:09:35;;;;;;;32.92;27.67;;;;;;;;;;5157193;27;20103;-46
2024/03/19 13:12:01;;;;;;;31.15;27.15;;;;;;;;;;5156725;27;20360;-46
2024/03/19 13:14:27;;;;;;;33.47;27.45;;;;;;;;;;5156774;27;20391;-46
2024/03/19 13:16:53;;;;;;;31.50;27.63;;;;;;;;;;5156927;27;20019;-48
2024/03/19 13:19:20;;;;;;;31.45;27.95;;;;;;;;;;5156325;27;20499;-47
2024/03/19 13:21:46;;;;;;;33.03;28.40;;;;;;;;;;5138033;27;20038;-46
2024/03/19 13:24:12;;;;;;;30.35;27.08;;;;;;;;;;5156751;27;20110;-47
2024/03/19 13:26:39;;;;;;;32.33;26.75;;;;;;;;;;5155487;27;20047;-48
2024/03/19 13:29:05;;;;;;;31.60;26.02;;;;;;;;;;5142356;27;20029;-47
2024/03/19 13:31:31;;;;;;;30.50;25.90;;;;;;;;;;5148019;27;20026;-46
2024/03/19 13:33:57;;;;;;;28.60;25.02;;;;;;;;;;5148831;27;20049;-49
2024/03/19 13:36:24;;;;;;;27.65;24.80;;;;;;;;;;5145466;27;20049;-48
2024/03/19 13:38:51;;;;;;;27.98;25.00;;;;;;;;;;5127891;27;20113;-49
2024/03/19 13:41:19;;;;;;;34.92;28.60;;;;;;;;;;5149181;27;20038;-47
2024/03/19 13:43:45;;;;;;;32.10;26.95;;;;;;;;;;5146227;27;20022;-50
2024/03/19 13:46:13;;;;;;;28.30;25.38;;;;;;;;;;5144748;27;20039;-58
2024/03/19 13:48:39;;;;;;;29.45;24.10;;;;;;;;;;5141253;27;20023;-62
2024/03/19 13:51:06;;;;;;;28.80;25.70;;;;;;;;;;5151592;27;20019;-64
2024/03/19 13:53:32;;;;;;;35.63;27.63;;;;;;;;;;5121763;27;20501;-64
2024/03/19 13:55:58;;;;;;;33.22;26.27;;;;;;;;;;5144137;27;20070;-63
2024/03/19 13:58:25;;;;;;;31.73;26.85;;;;;;;;;;5142413;27;20055;-61
2024/03/19 14:00:56;;;;;;;34.22;25.52;;;;;;;;;;5142599;27;20093;-48
2024/03/19 14:03:22;;;;;;;30.45;26.17;;;;;;;;;;5151656;27;20023;-51
2024/03/19 14:05:49;;;;;;;27.33;23.83;;;;;;;;;;5143761;27;20037;-49
2024/03/19 14:08:18;;;;;;;29.02;24.58;;;;;;;;;;5142048;27;20058;-53
2024/03/19 14:10:47;;;;;;;29.55;24.75;;;;;;;;;;5143795;27;20076;-64
2024/03/19 14:13:14;;;;;;;27.15;22.23;;;;;;;;;;5144619;27;20022;-53
2024/03/19 14:15:40;;;;;;;25.60;21.35;;;;;;;;;;5143407;27;20030;-49
2024/03/19 14:18:07;;;;;;;26.65;22.60;;;;;;;;;;5136326;27;20069;-60
2024/03/19 14:20:34;;;;;;;29.13;23.80;;;;;;;;;;5145086;27;20034;-60
2024/03/19 14:23:00;;;;;;;27.10;23.40;;;;;;;;;;5150037;27;20110;-56
2024/03/19 14:25:26;;;;;;;28.80;23.63;;;;;;;;;;5134253;27;20075;-61
2024/03/19 14:27:52;;;;;;;27.50;24.55;;;;;;;;;;5154107;27;20097;-51
2024/03/19 14:30:18;;;;;;;29.80;24.98;;;;;;;;;;5142376;27;20027;-55
2024/03/19 14:32:45;;;;;;;32.47;24.63;;;;;;;;;;5140815;27;20022;-60
2024/03/19 14:35:11;;;;;;;30.08;24.88;;;;;;;;;;5142633;27;20468;-60